createdAt,value
2018-04-19T00:00:11.686Z,1007.15
2018-04-19T00:01:11.786Z,1007.17
2018-04-19T00:02:11.885Z,1007.14
2018-04-19T00:03:11.981Z,1007.13
2018-04-19T00:04:12.073Z,1007.11
2018-04-19T00:05:12.171Z,1007.13
2018-04-19T00:06:12.268Z,1007.14
2018-04-19T00:07:12.366Z,1007.14
2018-04-19T00:08:12.461Z,1007.16
2018-04-19T00:09:12.560Z,1007.12
2018-04-19T00:10:12.655Z,1007.11
2018-04-19T00:11:12.746Z,1007.12
2018-04-19T00:12:12.842Z,1007.13
2018-04-19T00:13:12.938Z,1007.10
2018-04-19T00:14:13.029Z,1007.07
2018-04-19T00:15:13.122Z,1007.08
2018-04-19T00:16:13.216Z,1007.08
2018-04-19T00:17:13.310Z,1007.12
2018-04-19T00:18:13.406Z,1007.12
2018-04-19T00:19:13.501Z,1007.11
2018-04-19T00:20:13.593Z,1007.14
2018-04-19T00:21:13.687Z,1007.08
2018-04-19T00:22:13.782Z,1007.09
2018-04-19T00:23:13.876Z,1007.07
2018-04-19T00:24:13.971Z,1007.09
2018-04-19T00:25:14.063Z,1007.07
2018-04-19T00:26:14.159Z,1007.11
2018-04-19T00:27:14.257Z,1007.15
2018-04-19T00:28:14.349Z,1007.13
2018-04-19T00:29:14.442Z,1007.14
2018-04-19T00:30:14.541Z,1007.13
2018-04-19T00:31:14.634Z,1007.14
2018-04-19T00:32:14.726Z,1007.15
2018-04-19T00:33:14.839Z,1007.09
2018-04-19T00:34:14.938Z,1007.10
2018-04-19T00:35:15.031Z,1007.10
2018-04-19T00:36:15.129Z,1007.13
2018-04-19T00:37:15.226Z,1007.14
2018-04-19T00:38:15.322Z,1007.17
2018-04-19T00:39:15.411Z,1007.16
2018-04-19T00:40:15.504Z,1007.14
2018-04-19T00:41:15.595Z,1007.13
2018-04-19T00:42:15.691Z,1007.12
2018-04-19T00:43:15.786Z,1007.09
2018-04-19T00:44:15.884Z,1007.11
2018-04-19T00:45:15.975Z,1007.08
2018-04-19T00:46:16.075Z,1007.09
2018-04-19T00:47:16.168Z,1007.14
2018-04-19T00:48:16.266Z,1007.12
2018-04-19T00:49:16.357Z,1007.10
2018-04-19T00:50:16.447Z,1007.11
2018-04-19T00:51:16.548Z,1007.07
2018-04-19T00:52:16.641Z,1007.12
2018-04-19T00:53:16.735Z,1007.07
2018-04-19T00:54:16.834Z,1007.04
2018-04-19T00:55:16.928Z,1007.06
2018-04-19T00:56:17.023Z,1007.01
2018-04-19T00:57:17.116Z,1007.04
2018-04-19T00:58:17.212Z,1007.07
2018-04-19T00:59:17.305Z,1007.10
2018-04-19T01:00:17.398Z,1007.06
2018-04-19T01:01:17.492Z,1007.04
2018-04-19T01:02:17.586Z,1007.04
2018-04-19T01:03:17.679Z,1007.02
2018-04-19T01:04:17.774Z,1007.02
2018-04-19T01:05:17.872Z,1007.02
2018-04-19T01:06:17.968Z,1007.03
2018-04-19T01:07:18.064Z,1007.02
2018-04-19T01:08:18.162Z,1007.03
2018-04-19T01:09:18.255Z,1007.03
2018-04-19T01:10:18.425Z,1007.07
2018-04-19T01:11:18.468Z,1007.03
2018-04-19T01:12:18.539Z,1007.03
2018-04-19T01:13:18.628Z,1007.07
2018-04-19T01:14:18.723Z,1007.09
2018-04-19T01:15:18.817Z,1007.05
2018-04-19T01:16:18.913Z,1007.04
2018-04-19T01:17:19.008Z,1007.03
2018-04-19T01:18:19.101Z,1007.04
2018-04-19T01:19:19.213Z,1007.03
2018-04-19T01:20:19.309Z,1007.02
2018-04-19T01:21:19.403Z,1007.02
2018-04-19T01:22:19.497Z,1007.05
2018-04-19T01:23:19.592Z,1006.98
2018-04-19T01:24:19.690Z,1007.02
2018-04-19T01:25:19.789Z,1007.04
2018-04-19T01:26:19.882Z,1007.06
2018-04-19T01:27:19.978Z,1007.08
2018-04-19T01:28:20.074Z,1007.11
2018-04-19T01:29:20.167Z,1007.09
2018-04-19T01:30:20.263Z,1007.09
2018-04-19T01:31:20.354Z,1007.06
2018-04-19T01:32:20.449Z,1007.03
2018-04-19T01:33:20.545Z,1007.06
2018-04-19T01:34:20.635Z,1007.03
2018-04-19T01:35:20.731Z,1007.06
2018-04-19T01:36:20.822Z,1007.06
2018-04-19T01:37:20.914Z,1007.06
2018-04-19T01:38:21.006Z,1007.10
2018-04-19T01:39:21.103Z,1007.08
2018-04-19T01:40:21.201Z,1007.10
2018-04-19T01:41:21.291Z,1007.10
2018-04-19T01:42:21.382Z,1007.08
2018-04-19T01:43:21.474Z,1007.05
2018-04-19T01:44:21.573Z,1007.06
2018-04-19T01:45:21.672Z,1007.04
2018-04-19T01:46:21.765Z,1007.05
2018-04-19T01:47:21.864Z,1007.07
2018-04-19T01:48:21.960Z,1007.07
2018-04-19T01:49:22.060Z,1007.07
2018-04-19T01:50:22.148Z,1007.06
2018-04-19T01:51:22.241Z,1007.05
2018-04-19T01:52:22.338Z,1007.03
2018-04-19T01:53:22.431Z,1007.04
2018-04-19T01:54:22.523Z,1007.08
2018-04-19T01:55:22.621Z,1007.06
2018-04-19T01:56:22.714Z,1007.07
2018-04-19T01:57:22.807Z,1007.05
2018-04-19T01:58:22.898Z,1007.10
2018-04-19T01:59:22.995Z,1007.06
2018-04-19T02:00:23.092Z,1007.07
2018-04-19T02:01:23.188Z,1007.08
2018-04-19T02:02:23.282Z,1007.06
2018-04-19T02:03:23.378Z,1007.09
2018-04-19T02:04:23.477Z,1007.07
2018-04-19T02:05:23.568Z,1007.11
2018-04-19T02:06:23.661Z,1007.11
2018-04-19T02:07:23.757Z,1007.08
2018-04-19T02:08:23.849Z,1007.07
2018-04-19T02:09:23.942Z,1007.06
2018-04-19T02:10:24.040Z,1007.03
2018-04-19T02:11:24.127Z,1007.06
2018-04-19T02:12:24.224Z,1007.07
2018-04-19T02:13:24.318Z,1007.06
2018-04-19T02:14:24.415Z,1007.06
2018-04-19T02:15:24.507Z,1007.10
2018-04-19T02:16:24.607Z,1007.09
2018-04-19T02:17:24.698Z,1007.08
2018-04-19T02:18:24.788Z,1007.11
2018-04-19T02:19:24.885Z,1007.11
2018-04-19T02:20:24.975Z,1007.13
2018-04-19T02:21:25.067Z,1007.16
2018-04-19T02:22:25.144Z,1007.16
2018-04-19T02:23:25.231Z,1007.16
2018-04-19T02:24:26.337Z,1007.16
2018-04-19T02:25:25.424Z,1007.19
2018-04-19T02:26:25.521Z,1007.16
2018-04-19T02:27:25.615Z,1007.14
2018-04-19T02:28:25.722Z,1007.18
2018-04-19T02:29:25.836Z,1007.15
2018-04-19T02:30:25.893Z,1007.17
2018-04-19T02:31:26.048Z,1007.17
2018-04-19T02:32:26.137Z,1007.15
2018-04-19T02:33:26.220Z,1007.13
2018-04-19T02:34:26.317Z,1007.10
2018-04-19T02:35:26.427Z,1007.09
2018-04-19T02:36:26.531Z,1007.04
2018-04-19T02:37:26.656Z,1007.08
2018-04-19T02:38:26.745Z,1007.05
2018-04-19T02:39:26.836Z,1007.07
2018-04-19T02:40:26.916Z,1007.08
2018-04-19T02:41:27.006Z,1007.07
2018-04-19T02:42:27.157Z,1007.06
2018-04-19T02:43:27.252Z,1007.06
2018-04-19T02:44:27.324Z,1007.02
2018-04-19T02:45:27.433Z,1007.00
2018-04-19T02:46:27.539Z,1007.04
2018-04-19T02:47:27.622Z,1007.00
2018-04-19T02:48:27.790Z,1007.00
2018-04-19T02:49:27.742Z,1007.02
2018-04-19T02:50:27.849Z,1006.98
2018-04-19T02:51:27.917Z,1007.01
2018-04-19T02:52:28.029Z,1006.98
2018-04-19T02:53:28.110Z,1006.99
2018-04-19T02:54:28.211Z,1006.97
2018-04-19T02:55:28.311Z,1006.97
2018-04-19T02:56:28.399Z,1006.93
2018-04-19T02:57:28.484Z,1006.96
2018-04-19T02:58:28.574Z,1006.96
2018-04-19T02:59:28.680Z,1006.94
2018-04-19T03:00:28.768Z,1006.98
2018-04-19T03:01:28.852Z,1006.96
2018-04-19T03:02:28.945Z,1006.92
2018-04-19T03:03:29.037Z,1006.94
2018-04-19T03:04:29.132Z,1006.90
2018-04-19T03:05:29.220Z,1006.88
2018-04-19T03:06:29.324Z,1006.87
2018-04-19T03:07:29.407Z,1006.83
2018-04-19T03:08:29.516Z,1006.83
2018-04-19T03:09:29.649Z,1006.85
2018-04-19T03:10:29.732Z,1006.84
2018-04-19T03:11:29.912Z,1006.76
2018-04-19T03:12:29.873Z,1006.80
2018-04-19T03:13:29.981Z,1006.76
2018-04-19T03:14:30.064Z,1006.75
2018-04-19T03:15:30.152Z,1006.76
2018-04-19T03:16:30.236Z,1006.76
2018-04-19T03:17:30.319Z,1006.73
2018-04-19T03:18:30.418Z,1006.77
2018-04-19T03:19:30.535Z,1006.77
2018-04-19T03:20:30.679Z,1006.71
2018-04-19T03:21:30.703Z,1006.75
2018-04-19T03:22:30.795Z,1006.71
2018-04-19T03:23:30.898Z,1006.70
2018-04-19T03:24:30.978Z,1006.73
2018-04-19T03:25:31.072Z,1006.76
2018-04-19T03:26:31.165Z,1006.70
2018-04-19T03:27:31.263Z,1006.69
2018-04-19T03:28:31.349Z,1006.71
2018-04-19T03:29:31.432Z,1006.66
2018-04-19T03:30:31.554Z,1006.68
2018-04-19T03:31:31.645Z,1006.65
2018-04-19T03:32:31.729Z,1006.66
2018-04-19T03:33:31.825Z,1006.66
2018-04-19T03:34:31.917Z,1006.67
2018-04-19T03:35:32.047Z,1006.66
2018-04-19T03:36:32.129Z,1006.60
2018-04-19T03:37:32.215Z,1006.62
2018-04-19T03:38:32.310Z,1006.62
2018-04-19T03:39:32.398Z,1006.63
2018-04-19T03:40:32.488Z,1006.63
2018-04-19T03:41:32.578Z,1006.61
2018-04-19T03:42:32.671Z,1006.67
2018-04-19T03:43:32.774Z,1006.67
2018-04-19T03:44:32.861Z,1006.66
2018-04-19T03:45:32.954Z,1006.68
2018-04-19T03:46:33.076Z,1006.73
2018-04-19T03:47:33.158Z,1006.72
2018-04-19T03:48:33.298Z,1006.70
2018-04-19T03:49:33.360Z,1006.67
2018-04-19T03:50:33.488Z,1006.70
2018-04-19T03:51:33.586Z,1006.60
2018-04-19T03:52:33.701Z,1006.61
2018-04-19T03:53:33.796Z,1006.59
2018-04-19T03:54:33.907Z,1006.59
2018-04-19T03:55:34.003Z,1006.63
2018-04-19T03:56:34.091Z,1006.61
2018-04-19T03:57:34.187Z,1006.63
2018-04-19T03:58:34.285Z,1006.62
2018-04-19T03:59:34.383Z,1006.65
2018-04-19T04:00:34.475Z,1006.63
2018-04-19T04:01:34.607Z,1006.59
2018-04-19T04:02:34.730Z,1006.56
2018-04-19T04:03:34.819Z,1006.57
2018-04-19T04:04:34.915Z,1006.59
2018-04-19T04:05:35.011Z,1006.62
2018-04-19T04:06:35.144Z,1006.59
2018-04-19T04:07:35.242Z,1006.61
2018-04-19T04:08:35.324Z,1006.59
2018-04-19T04:09:35.415Z,1006.60
2018-04-19T04:10:35.506Z,1006.59
2018-04-19T04:11:35.678Z,1006.55
2018-04-19T04:12:35.728Z,1006.56
2018-04-19T04:13:35.817Z,1006.56
2018-04-19T04:14:35.903Z,1006.61
2018-04-19T04:15:35.988Z,1006.60
2018-04-19T04:16:36.076Z,1006.57
2018-04-19T04:17:36.162Z,1006.55
2018-04-19T04:18:36.240Z,1006.58
2018-04-19T04:19:36.342Z,1006.58
2018-04-19T04:20:36.421Z,1006.54
2018-04-19T04:21:36.516Z,1006.52
2018-04-19T04:22:36.597Z,1006.50
2018-04-19T04:23:36.683Z,1006.51
2018-04-19T04:24:36.780Z,1006.47
2018-04-19T04:25:36.868Z,1006.49
2018-04-19T04:26:36.963Z,1006.45
2018-04-19T04:27:37.057Z,1006.50
2018-04-19T04:28:37.153Z,1006.50
2018-04-19T04:29:37.246Z,1006.51
2018-04-19T04:30:37.341Z,1006.53
2018-04-19T04:31:37.478Z,1006.51
2018-04-19T04:32:37.571Z,1006.50
2018-04-19T04:33:37.664Z,1006.51
2018-04-19T04:34:37.755Z,1006.49
2018-04-19T04:35:37.860Z,1006.47
2018-04-19T04:36:38.003Z,1006.54
2018-04-19T04:37:38.094Z,1006.51
2018-04-19T04:38:38.186Z,1006.47
2018-04-19T04:39:38.287Z,1006.44
2018-04-19T04:40:38.379Z,1006.45
2018-04-19T04:41:38.473Z,1006.45
2018-04-19T04:42:38.566Z,1006.48
2018-04-19T04:43:38.657Z,1006.47
2018-04-19T04:44:38.751Z,1006.50
2018-04-19T04:45:38.856Z,1006.48
2018-04-19T04:46:38.946Z,1006.53
2018-04-19T04:47:39.034Z,1006.52
2018-04-19T04:48:39.133Z,1006.52
2018-04-19T04:49:39.227Z,1006.53
2018-04-19T04:50:39.320Z,1006.52
2018-04-19T04:51:39.418Z,1006.51
2018-04-19T04:52:39.509Z,1006.49
2018-04-19T04:53:39.605Z,1006.55
2018-04-19T04:54:39.695Z,1006.51
2018-04-19T04:55:39.792Z,1006.56
2018-04-19T04:56:39.888Z,1006.54
2018-04-19T04:57:39.971Z,1006.57
2018-04-19T04:58:40.065Z,1006.54
2018-04-19T04:59:40.157Z,1006.53
2018-04-19T05:00:40.248Z,1006.59
2018-04-19T05:01:40.333Z,1006.56
2018-04-19T05:02:40.421Z,1006.54
2018-04-19T05:03:40.527Z,1006.60
2018-04-19T05:04:40.631Z,1006.54
2018-04-19T05:05:40.747Z,1006.52
2018-04-19T05:06:40.804Z,1006.48
2018-04-19T05:07:40.904Z,1006.54
2018-04-19T05:08:40.994Z,1006.52
2018-04-19T05:09:41.091Z,1006.51
2018-04-19T05:10:41.187Z,1006.52
2018-04-19T05:11:41.282Z,1006.53
2018-04-19T05:12:41.378Z,1006.51
2018-04-19T05:13:41.471Z,1006.57
2018-04-19T05:14:41.564Z,1006.46
2018-04-19T05:15:41.661Z,1006.49
2018-04-19T05:16:41.751Z,1006.52
2018-04-19T05:17:41.845Z,1006.47
2018-04-19T05:18:41.941Z,1006.48
2018-04-19T05:19:42.038Z,1006.52
2018-04-19T05:20:42.127Z,1006.51
2018-04-19T05:21:42.220Z,1006.51
2018-04-19T05:22:42.321Z,1006.50
2018-04-19T05:23:42.410Z,1006.48
2018-04-19T05:24:42.501Z,1006.51
2018-04-19T05:25:42.584Z,1006.50
2018-04-19T05:26:42.692Z,1006.49
2018-04-19T05:27:42.790Z,1006.50
2018-04-19T05:28:42.882Z,1006.51
2018-04-19T05:29:42.982Z,1006.55
2018-04-19T05:30:43.076Z,1006.53
2018-04-19T05:31:43.196Z,1006.56
2018-04-19T05:32:43.282Z,1006.57
2018-04-19T05:33:43.369Z,1006.64
2018-04-19T05:34:43.461Z,1006.59
2018-04-19T05:35:43.556Z,1006.61
2018-04-19T05:36:43.648Z,1006.59
2018-04-19T05:37:43.748Z,1006.56
2018-04-19T05:38:43.860Z,1006.57
2018-04-19T05:39:43.955Z,1006.54
2018-04-19T05:40:44.053Z,1006.62
2018-04-19T05:41:44.151Z,1006.63
2018-04-19T05:42:44.247Z,1006.65
2018-04-19T05:43:44.340Z,1006.63
2018-04-19T05:44:44.435Z,1006.61
2018-04-19T05:45:44.529Z,1006.64
2018-04-19T05:46:44.624Z,1006.60
2018-04-19T05:47:44.716Z,1006.61
2018-04-19T05:48:44.812Z,1006.60
2018-04-19T05:49:44.907Z,1006.63
2018-04-19T05:50:45.005Z,1006.62
2018-04-19T05:51:45.101Z,1006.64
2018-04-19T05:52:45.197Z,1006.68
2018-04-19T05:53:45.292Z,1006.70
2018-04-19T05:54:45.389Z,1006.73
2018-04-19T05:55:45.482Z,1006.71
2018-04-19T05:56:45.579Z,1006.66
2018-04-19T05:57:45.674Z,1006.67
2018-04-19T05:58:45.784Z,1006.69
2018-04-19T05:59:45.868Z,1006.66
2018-04-19T06:00:45.966Z,1006.74
2018-04-19T06:01:46.064Z,1006.90
2018-04-19T06:02:46.163Z,1006.96
2018-04-19T06:03:46.290Z,1006.96
2018-04-19T06:04:46.374Z,1006.94
2018-04-19T06:05:46.470Z,1006.95
2018-04-19T06:06:46.569Z,1006.93
2018-04-19T06:07:46.666Z,1006.85
2018-04-19T06:08:46.765Z,1006.85
2018-04-19T06:09:46.864Z,1006.92
2018-04-19T06:10:46.959Z,1006.93
2018-04-19T06:11:47.055Z,1006.98
2018-04-19T06:12:47.156Z,1006.95
2018-04-19T06:13:47.249Z,1006.99
2018-04-19T06:14:47.348Z,1006.95
2018-04-19T06:15:47.453Z,1006.95
2018-04-19T06:16:47.556Z,1006.98
2018-04-19T06:17:47.654Z,1007.00
2018-04-19T06:18:47.758Z,1006.97
2018-04-19T06:19:47.845Z,1007.06
2018-04-19T06:20:47.931Z,1007.08
2018-04-19T06:21:48.027Z,1006.99
2018-04-19T06:22:48.121Z,1007.01
2018-04-19T06:23:48.232Z,1007.02
2018-04-19T06:24:48.320Z,1007.01
2018-04-19T06:25:48.411Z,1007.01
2018-04-19T06:26:48.532Z,1007.03
2018-04-19T06:27:48.634Z,1006.98
2018-04-19T06:28:48.740Z,1007.06
2018-04-19T06:29:48.849Z,1007.09
2018-04-19T06:30:48.968Z,1007.08
2018-04-19T06:31:49.067Z,1007.10
2018-04-19T06:32:49.159Z,1007.11
2018-04-19T06:33:49.260Z,1007.13
2018-04-19T06:34:49.358Z,1007.13
2018-04-19T06:35:49.455Z,1007.07
2018-04-19T06:36:49.774Z,1007.10
2018-04-19T06:37:49.624Z,1007.09
2018-04-19T06:38:49.771Z,1007.11
2018-04-19T06:39:49.804Z,1007.06
2018-04-19T06:40:49.906Z,1007.09
2018-04-19T06:41:50.012Z,1007.09
2018-04-19T06:42:50.212Z,1007.10
2018-04-19T06:43:50.192Z,1007.06
2018-04-19T06:44:50.374Z,1007.07
2018-04-19T06:45:50.411Z,1007.06
2018-04-19T06:46:50.553Z,1007.09
2018-04-19T06:47:50.657Z,1007.03
2018-04-19T06:48:50.794Z,1007.02
2018-04-19T06:49:50.898Z,1007.04
2018-04-19T06:50:50.999Z,1007.05
2018-04-19T06:51:51.108Z,1007.02
2018-04-19T06:52:51.211Z,1007.01
2018-04-19T06:53:51.311Z,1007.05
2018-04-19T06:54:51.421Z,1007.00
2018-04-19T06:55:51.606Z,1007.02
2018-04-19T06:56:51.590Z,1007.02
2018-04-19T06:57:51.691Z,1007.03
2018-04-19T06:58:51.791Z,1007.04
2018-04-19T06:59:51.898Z,1007.05
2018-04-19T07:00:52.003Z,1007.02
2018-04-19T07:01:52.101Z,1007.05
2018-04-19T07:02:52.208Z,1007.01
2018-04-19T07:03:52.309Z,1007.02
2018-04-19T07:04:52.411Z,1007.01
2018-04-19T07:05:52.521Z,1007.02
2018-04-19T07:06:52.623Z,1007.03
2018-04-19T07:07:52.727Z,1007.00
2018-04-19T07:08:52.842Z,1007.05
2018-04-19T07:09:52.943Z,1007.03
2018-04-19T07:10:53.048Z,1007.03
2018-04-19T07:11:53.154Z,1006.98
2018-04-19T07:12:53.256Z,1006.99
2018-04-19T07:13:53.373Z,1006.99
2018-04-19T07:14:53.479Z,1006.98
2018-04-19T07:15:53.594Z,1006.96
2018-04-19T07:16:53.702Z,1006.91
2018-04-19T07:17:53.805Z,1006.90
2018-04-19T07:18:53.909Z,1006.89
2018-04-19T07:19:54.018Z,1006.87
2018-04-19T07:20:54.125Z,1006.89
2018-04-19T07:21:54.238Z,1006.87
2018-04-19T07:22:54.339Z,1006.89
2018-04-19T07:23:54.434Z,1006.85
2018-04-19T07:24:54.536Z,1006.82
2018-04-19T07:25:54.639Z,1006.80
2018-04-19T07:26:54.744Z,1006.82
2018-04-19T07:27:54.850Z,1006.81
2018-04-19T07:28:54.955Z,1006.78
2018-04-19T07:29:55.072Z,1006.77
2018-04-19T07:30:55.152Z,1006.77
2018-04-19T07:31:55.248Z,1006.79
2018-04-19T07:32:55.354Z,1006.78
2018-04-19T07:33:55.492Z,1006.76
2018-04-19T07:34:55.599Z,1006.76
2018-04-19T07:35:55.758Z,1006.74
2018-04-19T07:36:55.744Z,1006.70
2018-04-19T07:37:55.849Z,1006.71
2018-04-19T07:38:55.955Z,1006.75
2018-04-19T07:39:56.088Z,1006.72
2018-04-19T07:40:56.186Z,1006.72
2018-04-19T07:41:56.275Z,1006.75
2018-04-19T07:42:56.393Z,1006.74
2018-04-19T07:43:56.496Z,1006.72
2018-04-19T07:44:56.621Z,1006.75
2018-04-19T07:45:56.794Z,1006.74
2018-04-19T07:46:56.903Z,1006.77
2018-04-19T07:47:57.047Z,1006.73
2018-04-19T07:48:57.147Z,1006.72
2018-04-19T07:49:57.289Z,1006.76
2018-04-19T07:50:57.326Z,1006.74
2018-04-19T07:51:57.475Z,1006.78
2018-04-19T07:52:57.570Z,1006.80
2018-04-19T07:53:57.663Z,1006.84
2018-04-19T07:54:57.770Z,1006.82
2018-04-19T07:55:57.891Z,1006.81
2018-04-19T07:56:58.008Z,1006.83
2018-04-19T07:57:58.174Z,1006.78
2018-04-19T07:58:58.245Z,1006.75
2018-04-19T07:59:58.310Z,1006.76
2018-04-19T08:00:58.393Z,1006.77
2018-04-19T08:01:58.499Z,1006.76
2018-04-19T08:02:58.625Z,1006.76
2018-04-19T08:03:58.744Z,1006.74
2018-04-19T08:04:58.881Z,1006.79
2018-04-19T08:05:59.010Z,1006.78
2018-04-19T08:06:59.192Z,1006.78
2018-04-19T08:07:59.305Z,1006.75
2018-04-19T08:08:59.391Z,1006.77
2018-04-19T08:09:59.431Z,1006.75
2018-04-19T08:10:59.579Z,1006.74
2018-04-19T08:11:59.743Z,1006.75
2018-04-19T08:12:59.799Z,1006.74
2018-04-19T08:13:59.794Z,1006.77
2018-04-19T08:14:59.882Z,1006.79
2018-04-19T08:16:00.128Z,1006.77
2018-04-19T08:17:00.109Z,1006.77
2018-04-19T08:18:00.202Z,1006.76
2018-04-19T08:19:00.371Z,1006.76
2018-04-19T08:20:00.358Z,1006.75
2018-04-19T08:21:00.453Z,1006.80
2018-04-19T08:22:00.560Z,1006.77
2018-04-19T08:23:00.654Z,1006.76
2018-04-19T08:24:00.779Z,1006.73
2018-04-19T08:25:00.893Z,1006.74
2018-04-19T08:26:00.989Z,1006.74
2018-04-19T08:27:01.151Z,1006.75
2018-04-19T08:28:01.245Z,1006.75
2018-04-19T08:29:01.702Z,1006.73
2018-04-19T08:30:01.668Z,1006.74
2018-04-19T08:31:01.486Z,1006.76
2018-04-19T08:32:01.623Z,1006.73
2018-04-19T08:33:01.729Z,1006.76
2018-04-19T08:34:01.831Z,1006.78
2018-04-19T08:35:01.934Z,1006.75
2018-04-19T08:36:02.075Z,1006.71
2018-04-19T08:37:02.173Z,1006.73
2018-04-19T08:38:02.268Z,1006.75
2018-04-19T08:39:02.391Z,1006.72
2018-04-19T08:40:02.556Z,1006.72
2018-04-19T08:41:02.641Z,1006.74
2018-04-19T08:42:02.732Z,1006.75
2018-04-19T08:43:02.833Z,1006.72
2018-04-19T08:44:02.986Z,1006.74
2018-04-19T08:45:03.171Z,1006.72
2018-04-19T08:46:03.129Z,1006.71
2018-04-19T08:47:03.308Z,1006.71
2018-04-19T08:48:03.290Z,1006.72
2018-04-19T08:49:03.510Z,1006.67
2018-04-19T08:50:03.479Z,1006.65
2018-04-19T08:51:03.764Z,1006.68
2018-04-19T08:52:03.643Z,1006.65
2018-04-19T08:53:03.735Z,1006.67
2018-04-19T08:54:05.349Z,1006.68
2018-04-19T08:55:06.250Z,1006.66
2018-04-19T08:56:04.200Z,1006.65
2018-04-19T08:57:04.183Z,1006.61
2018-04-19T08:58:04.437Z,1006.63
2018-04-19T08:59:04.545Z,1006.63
2018-04-19T09:00:04.531Z,1006.63
2018-04-19T09:01:04.521Z,1006.64
2018-04-19T09:02:04.679Z,1006.69
2018-04-19T09:03:04.765Z,1006.65
2018-04-19T09:04:04.874Z,1006.64
2018-04-19T09:05:05.091Z,1006.63
2018-04-19T09:06:05.018Z,1006.63
2018-04-19T09:07:05.134Z,1006.63
2018-04-19T09:08:05.228Z,1006.59
2018-04-19T09:09:05.379Z,1006.57
2018-04-19T09:10:06.423Z,1006.57
2018-04-19T09:11:05.554Z,1006.56
2018-04-19T09:12:05.696Z,1006.49
2018-04-19T09:13:05.773Z,1006.51
2018-04-19T09:14:06.072Z,1006.50
2018-04-19T09:15:06.052Z,1006.50
2018-04-19T09:16:06.027Z,1006.48
2018-04-19T09:17:06.152Z,1006.46
2018-04-19T09:18:06.361Z,1006.43
2018-04-19T09:19:06.357Z,1006.47
2018-04-19T09:20:06.489Z,1006.49
2018-04-19T09:21:07.504Z,1006.48
2018-04-19T09:22:06.732Z,1006.45
2018-04-19T09:23:07.139Z,1006.43
2018-04-19T09:24:07.056Z,1006.45
2018-04-19T09:25:07.027Z,1006.43
2018-04-19T09:26:07.116Z,1006.44
2018-04-19T09:27:07.225Z,1006.44
2018-04-19T09:28:07.357Z,1006.41
2018-04-19T09:29:07.453Z,1006.42
2018-04-19T09:30:07.621Z,1006.41
2018-04-19T09:31:07.720Z,1006.46
2018-04-19T09:32:07.851Z,1006.45
2018-04-19T09:33:07.977Z,1006.43
2018-04-19T09:34:08.118Z,1006.43
2018-04-19T09:35:08.223Z,1006.40
2018-04-19T09:36:08.316Z,1006.42
2018-04-19T09:37:08.409Z,1006.40
2018-04-19T09:38:08.625Z,1006.36
2018-04-19T09:39:08.608Z,1006.40
2018-04-19T09:40:08.691Z,1006.39
2018-04-19T09:41:08.761Z,1006.36
2018-04-19T09:42:08.889Z,1006.37
2018-04-19T09:43:08.991Z,1006.35
2018-04-19T09:44:09.106Z,1006.34
2018-04-19T09:45:09.216Z,1006.32
2018-04-19T09:46:09.303Z,1006.35
2018-04-19T09:47:09.627Z,1006.32
2018-04-19T09:48:09.484Z,1006.37
2018-04-19T09:49:09.584Z,1006.30
2018-04-19T09:50:09.736Z,1006.31
2018-04-19T09:51:09.949Z,1006.30
2018-04-19T09:52:09.794Z,1006.29
2018-04-19T09:53:09.929Z,1006.26
2018-04-19T09:54:10.088Z,1006.23
2018-04-19T09:55:10.155Z,1006.23
2018-04-19T09:56:10.320Z,1006.24
2018-04-19T09:57:10.447Z,1006.23
2018-04-19T09:58:10.554Z,1006.22
2018-04-19T09:59:10.706Z,1006.19
2018-04-19T10:00:10.780Z,1006.19
2018-04-19T10:01:10.885Z,1006.20
2018-04-19T10:02:10.987Z,1006.21
2018-04-19T10:03:11.098Z,1006.19
2018-04-19T10:04:11.208Z,1006.20
2018-04-19T10:05:11.311Z,1006.18
2018-04-19T10:06:11.463Z,1006.16
2018-04-19T10:07:11.565Z,1006.15
2018-04-19T10:08:11.667Z,1006.12
2018-04-19T10:09:11.780Z,1006.09
2018-04-19T10:10:11.884Z,1006.07
2018-04-19T10:11:11.995Z,1006.06
2018-04-19T10:12:12.107Z,1006.09
2018-04-19T10:13:13.287Z,1006.06
2018-04-19T10:14:12.263Z,1006.05
2018-04-19T10:15:12.369Z,1006.07
2018-04-19T10:16:12.473Z,1006.00
2018-04-19T10:17:12.598Z,1005.96
2018-04-19T10:18:12.693Z,1005.95
2018-04-19T10:19:12.795Z,1005.95
2018-04-19T10:20:12.901Z,1005.95
2018-04-19T10:21:13.068Z,1005.91
2018-04-19T10:22:13.110Z,1005.91
2018-04-19T10:23:13.209Z,1005.94
2018-04-19T10:24:13.312Z,1005.90
2018-04-19T10:25:13.410Z,1005.90
2018-04-19T10:26:13.513Z,1005.87
2018-04-19T10:27:13.616Z,1005.83
2018-04-19T10:28:13.725Z,1005.81
2018-04-19T10:29:13.832Z,1005.84
2018-04-19T10:30:13.950Z,1005.81
2018-04-19T10:31:14.055Z,1005.84
2018-04-19T10:32:14.208Z,1005.80
2018-04-19T10:33:14.274Z,1005.84
2018-04-19T10:34:14.374Z,1005.76
2018-04-19T10:35:14.570Z,1005.76
2018-04-19T10:36:14.588Z,1005.76
2018-04-19T10:37:14.696Z,1005.77
2018-04-19T10:38:14.806Z,1005.75
2018-04-19T10:39:14.911Z,1005.78
2018-04-19T10:40:15.022Z,1005.77
2018-04-19T10:41:15.145Z,1005.76
2018-04-19T10:42:15.232Z,1005.76
2018-04-19T10:43:15.336Z,1005.75
2018-04-19T10:44:15.440Z,1005.72
2018-04-19T10:45:15.547Z,1005.69
2018-04-19T10:46:15.654Z,1005.74
2018-04-19T10:47:15.763Z,1005.71
2018-04-19T10:48:15.864Z,1005.70
2018-04-19T10:49:15.966Z,1005.68
2018-04-19T10:50:16.065Z,1005.68
2018-04-19T10:51:16.170Z,1005.64
2018-04-19T10:52:16.276Z,1005.64
2018-04-19T10:53:16.379Z,1005.61
2018-04-19T10:54:16.476Z,1005.63
2018-04-19T10:55:16.595Z,1005.67
2018-04-19T10:56:16.695Z,1005.64
2018-04-19T10:57:16.799Z,1005.69
2018-04-19T10:58:16.908Z,1005.65
2018-04-19T10:59:17.009Z,1005.63
2018-04-19T11:00:17.119Z,1005.63
2018-04-19T11:01:17.247Z,1005.63
2018-04-19T11:02:17.350Z,1005.59
2018-04-19T11:03:17.453Z,1005.61
2018-04-19T11:04:17.559Z,1005.65
2018-04-19T11:05:17.668Z,1005.63
2018-04-19T11:06:17.769Z,1005.62
2018-04-19T11:07:17.875Z,1005.60
2018-04-19T11:08:17.982Z,1005.59
2018-04-19T11:09:18.085Z,1005.58
2018-04-19T11:10:18.196Z,1005.55
2018-04-19T11:11:18.298Z,1005.52
2018-04-19T11:12:18.401Z,1005.50
2018-04-19T11:13:18.507Z,1005.52
2018-04-19T11:14:18.613Z,1005.48
2018-04-19T11:15:18.712Z,1005.45
2018-04-19T11:16:18.812Z,1005.45
2018-04-19T11:17:18.940Z,1005.45
2018-04-19T11:18:19.047Z,1005.45
2018-04-19T11:19:19.149Z,1005.43
2018-04-19T11:20:19.255Z,1005.41
2018-04-19T11:21:19.361Z,1005.36
2018-04-19T11:22:19.466Z,1005.37
2018-04-19T11:23:19.576Z,1005.32
2018-04-19T11:24:19.685Z,1005.31
2018-04-19T11:25:19.780Z,1005.33
2018-04-19T11:26:19.899Z,1005.29
2018-04-19T11:27:20.006Z,1005.31
2018-04-19T11:28:20.112Z,1005.30
2018-04-19T11:29:20.218Z,1005.25
2018-04-19T11:30:20.327Z,1005.26
2018-04-19T11:31:20.430Z,1005.23
2018-04-19T11:32:20.534Z,1005.17
2018-04-19T11:33:20.644Z,1005.21
2018-04-19T11:34:20.747Z,1005.20
2018-04-19T11:35:20.849Z,1005.18
2018-04-19T11:36:20.958Z,1005.17
2018-04-19T11:37:21.060Z,1005.17
2018-04-19T11:38:21.164Z,1005.14
2018-04-19T11:39:21.274Z,1005.19
2018-04-19T11:40:21.378Z,1005.13
2018-04-19T11:41:21.480Z,1005.15
2018-04-19T11:42:21.590Z,1005.12
2018-04-19T11:43:21.696Z,1005.15
2018-04-19T11:44:21.810Z,1005.15
2018-04-19T11:45:21.919Z,1005.08
2018-04-19T11:46:22.026Z,1005.12
2018-04-19T11:47:22.118Z,1005.10
2018-04-19T11:48:22.221Z,1005.14
2018-04-19T11:49:22.325Z,1005.13
2018-04-19T11:50:22.437Z,1005.09
2018-04-19T11:51:22.547Z,1005.10
2018-04-19T11:52:22.647Z,1005.07
2018-04-19T11:53:22.748Z,1005.02
2018-04-19T11:54:22.855Z,1005.04
2018-04-19T11:55:22.995Z,1005.04
2018-04-19T11:56:23.063Z,1005.06
2018-04-19T11:57:23.169Z,1005.04
2018-04-19T11:58:23.277Z,1005.11
2018-04-19T11:59:23.387Z,1005.02
2018-04-19T12:00:23.506Z,1005.01
2018-04-19T12:01:23.592Z,1005.02
2018-04-19T12:02:23.696Z,1004.99
2018-04-19T12:03:23.800Z,1005.02
2018-04-19T12:04:23.914Z,1004.98
2018-04-19T12:05:24.012Z,1004.97
2018-04-19T12:06:24.119Z,1004.98